createdAt,value
2023-01-05T00:00:07.313Z,101519.59
2023-01-05T00:03:09.036Z,101518.31
2023-01-05T00:06:13.508Z,101516.28
2023-01-05T00:09:17.583Z,101514.41
2023-01-05T00:12:38.164Z,101502.78
2023-01-05T00:15:58.383Z,101499.63
2023-01-05T00:19:18.553Z,101494.38
2023-01-05T00:22:33.656Z,101483.63
2023-01-05T00:25:40.976Z,101486.47
2023-01-05T00:28:42.637Z,101481.75
2023-01-05T00:31:44.622Z,101469.72
2023-01-05T00:34:46.463Z,101476.78
2023-01-05T00:37:48.222Z,101477.31
2023-01-05T00:40:49.908Z,101481.06
2023-01-05T00:43:51.679Z,101469.78
2023-01-05T00:46:53.404Z,101472.13
2023-01-05T00:49:55.107Z,101475.56
2023-01-05T00:52:56.887Z,101463.44
2023-01-05T00:55:58.862Z,101464.22
2023-01-05T00:59:00.639Z,101458.19
2023-01-05T01:02:02.486Z,101433.34
2023-01-05T01:05:05.375Z,101405.53
2023-01-05T01:08:07.236Z,101431.34
2023-01-05T01:11:10.544Z,101428.16
2023-01-05T01:14:13.773Z,101412.38
2023-01-05T01:17:17.207Z,101418.63
2023-01-05T01:20:19.107Z,101409.97
2023-01-05T01:23:20.808Z,101395.81
2023-01-05T01:26:22.437Z,101390.78
2023-01-05T01:29:24.525Z,101389.78
2023-01-05T01:32:26.269Z,101385.13
2023-01-05T01:35:27.923Z,101385.88
2023-01-05T01:38:29.684Z,101375.13
2023-01-05T01:41:31.436Z,101383.56
2023-01-05T01:44:56.232Z,101388.31
2023-01-05T01:48:00.735Z,101403.53
2023-01-05T01:51:12.010Z,101403.19
2023-01-05T01:54:18.206Z,101388.16
2023-01-05T01:57:21.986Z,101390.25
2023-01-05T02:00:23.782Z,101373.97
2023-01-05T02:03:25.977Z,101367.16
2023-01-05T02:06:27.688Z,101359.50
2023-01-05T02:09:29.767Z,101353.47
2023-01-05T02:13:05.038Z,101336.78
2023-01-05T02:16:21.521Z,101356.41
2023-01-05T02:19:26.427Z,101335.97
2023-01-05T02:22:36.985Z,101348.59
2023-01-05T02:26:02.052Z,101345.69
2023-01-05T02:29:06.464Z,101342.06
2023-01-05T02:32:23.112Z,101332.03
2023-01-05T02:35:40.406Z,101346.19
2023-01-05T02:39:30.901Z,101331.28
2023-01-05T02:42:35.679Z,101322.31
2023-01-05T02:45:37.419Z,101324.09
2023-01-05T02:48:42.326Z,101308.59
2023-01-05T02:51:49.331Z,101299.75
2023-01-05T02:54:56.603Z,101301.56
2023-01-05T02:58:18.475Z,101304.25
2023-01-05T03:01:25.683Z,101284.63
2023-01-05T03:04:50.853Z,101274.38
2023-01-05T03:08:06.770Z,101276.94
2023-01-05T03:11:30.263Z,101272.50
2023-01-05T03:14:38.296Z,101282.53
2023-01-05T03:17:44.415Z,101271.03
2023-01-05T03:20:51.386Z,101263.16
2023-01-05T03:24:15.226Z,101254.28
2023-01-05T03:27:36.544Z,101252.50
2023-01-05T03:31:25.753Z,101241.72
2023-01-05T03:35:00.979Z,101209.78
2023-01-05T03:38:24.569Z,101202.41
2023-01-05T03:41:27.415Z,101201.16
2023-01-05T03:44:29.175Z,101198.72
2023-01-05T03:47:30.871Z,101200.78
2023-01-05T03:50:32.656Z,101208.31
2023-01-05T03:53:34.466Z,101188.72
2023-01-05T03:56:36.133Z,101181.91
2023-01-05T03:59:37.805Z,101181.41
2023-01-05T04:02:39.727Z,101188.25
2023-01-05T04:05:41.607Z,101202.88
2023-01-05T04:08:43.485Z,101198.72
2023-01-05T04:11:45.653Z,101180.38
2023-01-05T04:14:47.409Z,101186.16
2023-01-05T04:17:49.082Z,101169.31
2023-01-05T04:20:50.764Z,101164.31
2023-01-05T04:23:52.508Z,101172.16
2023-01-05T04:26:54.245Z,101172.41
2023-01-05T04:29:56.001Z,101162.47
2023-01-05T04:32:57.770Z,101137.34
2023-01-05T04:35:59.519Z,101150.66
2023-01-05T04:39:01.396Z,101143.59
2023-01-05T04:42:03.285Z,101148.38
2023-01-05T04:45:05.872Z,101148.63
2023-01-05T04:48:07.698Z,101137.38
2023-01-05T04:51:09.563Z,101130.13
2023-01-05T04:54:11.214Z,101118.03
2023-01-05T04:57:12.890Z,101122.75
2023-01-05T05:00:14.866Z,101100.47
2023-01-05T05:03:16.598Z,101095.25
2023-01-05T05:06:18.539Z,101086.31
2023-01-05T05:09:20.367Z,101083.66
2023-01-05T05:12:22.114Z,101095.91
2023-01-05T05:15:23.896Z,101114.00
2023-01-05T05:18:25.691Z,101108.50
2023-01-05T05:21:27.530Z,101122.13
2023-01-05T05:24:29.245Z,101111.91
2023-01-05T05:27:30.948Z,101134.16
2023-01-05T05:30:32.883Z,101148.31
2023-01-05T05:33:34.642Z,101165.59
2023-01-05T05:36:38.041Z,101169.78
2023-01-05T05:39:39.727Z,101174.00
2023-01-05T05:42:41.421Z,101149.91
2023-01-05T05:45:50.013Z,101156.72
2023-01-05T05:48:52.264Z,101153.84
2023-01-05T05:51:53.946Z,101147.84
2023-01-05T05:54:55.639Z,101146.78
2023-01-05T05:57:57.453Z,101154.06
2023-01-05T06:00:59.697Z,101133.84
2023-01-05T06:04:01.407Z,101124.69
2023-01-05T06:07:03.059Z,101127.06
2023-01-05T06:10:05.200Z,101124.19
2023-01-05T06:13:07.089Z,101118.16
2023-01-05T06:16:08.862Z,101118.13
2023-01-05T06:19:10.807Z,101119.69
2023-01-05T06:22:12.459Z,101135.09
2023-01-05T06:25:14.251Z,101138.72
2023-01-05T06:28:20.249Z,101143.63
2023-01-05T06:31:22.315Z,101158.28
2023-01-05T06:34:24.159Z,101160.66
2023-01-05T06:37:25.809Z,101166.41
2023-01-05T06:40:27.575Z,101164.50
2023-01-05T06:43:29.234Z,101159.84
2023-01-05T06:46:31.125Z,101158.25
2023-01-05T06:49:32.830Z,101163.97
2023-01-05T06:52:36.772Z,101163.50
2023-01-05T06:55:39.032Z,101155.63
2023-01-05T06:58:41.226Z,101150.81
2023-01-05T07:01:42.934Z,101142.75
2023-01-05T07:04:44.740Z,101146.88
2023-01-05T07:07:46.466Z,101145.22
2023-01-05T07:10:48.246Z,101144.44
2023-01-05T07:13:50.661Z,101128.00
2023-01-05T07:16:52.411Z,101124.31
2023-01-05T07:19:54.315Z,101128.47
2023-01-05T07:22:56.384Z,101136.59
2023-01-05T07:26:01.362Z,101124.56
2023-01-05T07:29:03.397Z,101125.84
2023-01-05T07:32:05.516Z,101126.66
2023-01-05T07:35:07.559Z,101109.41
2023-01-05T07:38:09.284Z,101099.47
2023-01-05T07:41:11.013Z,101093.25
2023-01-05T07:44:12.842Z,101078.44
2023-01-05T07:47:14.573Z,101072.50
2023-01-05T07:50:16.301Z,101066.19
2023-01-05T07:53:18.027Z,101064.91
2023-01-05T07:56:22.963Z,101058.94
2023-01-05T07:59:24.771Z,101050.06
2023-01-05T08:02:32.259Z,101036.94
2023-01-05T08:05:37.210Z,101012.13
2023-01-05T08:08:39.296Z,101002.22
2023-01-05T08:11:41.241Z,101010.34
2023-01-05T08:14:42.943Z,101011.13
2023-01-05T08:17:44.672Z,101015.09
2023-01-05T08:20:58.061Z,101016.94
2023-01-05T08:23:59.858Z,101021.09
2023-01-05T08:27:01.574Z,100997.03
2023-01-05T08:30:03.781Z,100993.09
2023-01-05T08:33:05.541Z,100999.66
2023-01-05T08:36:12.929Z,101008.84
2023-01-05T08:39:14.862Z,101009.63
2023-01-05T08:42:16.856Z,100996.81
2023-01-05T08:45:19.299Z,100987.91
2023-01-05T08:48:21.405Z,100988.69
2023-01-05T08:51:23.671Z,101001.53
2023-01-05T08:54:25.386Z,100994.75
2023-01-05T08:57:27.031Z,101011.03
2023-01-05T09:00:28.753Z,101011.81
2023-01-05T09:03:30.446Z,101006.84
2023-01-05T09:06:32.085Z,101006.56
2023-01-05T09:09:34.265Z,101017.28
2023-01-05T09:12:36.713Z,101002.84
2023-01-05T09:15:38.402Z,101013.63
2023-01-05T09:18:41.932Z,101017.28
2023-01-05T09:21:44.614Z,100996.28
2023-01-05T09:24:46.520Z,100992.06
2023-01-05T09:27:48.200Z,100969.47
2023-01-05T09:30:51.008Z,100954.19
2023-01-05T09:33:52.999Z,100950.47
2023-01-05T09:36:54.660Z,100950.41
2023-01-05T09:39:56.299Z,100950.91
2023-01-05T09:42:58.231Z,100925.56
2023-01-05T09:46:01.221Z,100924.91
2023-01-05T09:49:07.676Z,100939.78
2023-01-05T09:52:12.215Z,100942.91
2023-01-05T09:55:19.213Z,100950.13
2023-01-05T09:58:30.036Z,100938.84
2023-01-05T10:01:34.524Z,100934.19
2023-01-05T10:04:36.451Z,100936.75
2023-01-05T10:07:43.901Z,100943.75
2023-01-05T10:11:07.479Z,100944.19
2023-01-05T10:14:16.258Z,100924.25
2023-01-05T10:21:06.651Z,100913.13
2023-01-05T10:24:17.517Z,100896.03
2023-01-05T10:27:58.148Z,100890.78
2023-01-05T10:31:02.357Z,100892.84
2023-01-05T10:34:20.951Z,100898.66
2023-01-05T10:37:59.489Z,100897.75
2023-01-05T10:41:20.720Z,100895.00
2023-01-05T10:44:40.457Z,100868.31
2023-01-05T10:47:45.140Z,100856.56
2023-01-05T10:50:48.237Z,100856.25
2023-01-05T10:53:49.989Z,100842.97
2023-01-05T10:56:51.672Z,100851.38
2023-01-05T11:00:02.012Z,100846.56
2023-01-05T11:03:04.232Z,100851.94
2023-01-05T11:06:13.410Z,100849.50
2023-01-05T11:09:23.094Z,100862.88
2023-01-05T11:12:26.159Z,100847.56
2023-01-05T11:15:30.479Z,100857.13
2023-01-05T11:18:50.269Z,100849.63
2023-01-05T11:21:56.622Z,100846.97
2023-01-05T11:25:27.725Z,100847.78
2023-01-05T11:28:30.438Z,100851.78
2023-01-05T11:31:42.812Z,100863.13
2023-01-05T11:34:47.117Z,100848.84
2023-01-05T11:37:49.007Z,100842.59
2023-01-05T11:40:51.572Z,100830.75
2023-01-05T11:43:54.450Z,100852.47
2023-01-05T11:46:56.233Z,100837.22
2023-01-05T11:49:58.918Z,100834.59
2023-01-05T11:53:02.410Z,100831.16
2023-01-05T11:56:24.165Z,100830.88
2023-01-05T11:59:30.034Z,100811.31
2023-01-05T12:02:54.620Z,100803.31
2023-01-05T12:06:10.100Z,100790.63
2023-01-05T12:09:34.988Z,100825.09
2023-01-05T12:12:48.882Z,100809.81
2023-01-05T12:16:17.800Z,100823.19
2023-01-05T12:19:24.517Z,100832.84
2023-01-05T12:22:44.427Z,100856.59
2023-01-05T12:26:19.534Z,100873.91
2023-01-05T12:31:06.458Z,100866.47
2023-01-05T12:36:57.114Z,100865.09
2023-01-05T12:40:24.935Z,100866.69
2023-01-05T12:44:02.062Z,100869.69
2023-01-05T12:47:06.502Z,100876.06
2023-01-05T12:50:55.885Z,100886.31
2023-01-05T12:54:27.544Z,100894.78
2023-01-05T12:57:39.001Z,100897.25
2023-01-05T13:00:45.994Z,100925.25
2023-01-05T13:03:59.025Z,100934.75
2023-01-05T13:07:09.976Z,100934.06
2023-01-05T13:10:44.371Z,100942.06
2023-01-05T13:13:56.887Z,100958.22
2023-01-05T13:17:06.255Z,100972.00
2023-01-05T13:20:31.275Z,100974.81
2023-01-05T13:23:48.474Z,100981.19
2023-01-05T13:26:50.300Z,100978.91
2023-01-05T13:29:59.357Z,100981.75
2023-01-05T13:33:22.676Z,100996.91
2023-01-05T13:36:45.996Z,100996.09
2023-01-05T13:40:07.257Z,100955.91
2023-01-05T13:43:46.576Z,100967.03
2023-01-05T13:47:28.022Z,100955.47
2023-01-05T13:50:55.080Z,100940.03
2023-01-05T13:54:02.013Z,100943.91
2023-01-05T13:57:10.366Z,100944.59
2023-01-05T14:00:35.746Z,100936.56
2023-01-05T14:07:03.940Z,100944.56
2023-01-05T14:10:06.963Z,100944.16
2023-01-05T14:13:54.791Z,100950.94
2023-01-05T14:16:56.719Z,100947.28
2023-01-05T14:19:58.426Z,100942.38
2023-01-05T14:23:02.088Z,100946.09
2023-01-05T14:26:04.825Z,100930.19
2023-01-05T14:29:08.074Z,100909.16
2023-01-05T14:32:12.140Z,100913.16
2023-01-05T14:35:20.103Z,100914.25
2023-01-05T14:38:24.892Z,100911.31
2023-01-05T14:41:29.802Z,100913.38
2023-01-05T14:44:43.044Z,100910.91
2023-01-05T14:47:48.241Z,100910.13
2023-01-05T14:51:12.297Z,100911.84
2023-01-05T14:54:14.171Z,100893.69
2023-01-05T14:57:24.886Z,100880.50
2023-01-05T15:00:48.232Z,100876.00
2023-01-05T15:03:57.240Z,100888.69
2023-01-05T15:07:11.048Z,100882.84
2023-01-05T15:10:30.805Z,100864.88
2023-01-05T15:14:20.178Z,100859.91
2023-01-05T15:17:49.550Z,100872.38
2023-01-05T15:21:26.949Z,100878.56
2023-01-05T15:25:08.329Z,100892.25
2023-01-05T15:28:18.825Z,100898.59
2023-01-05T15:31:52.542Z,100903.88
2023-01-05T15:35:15.754Z,100904.00
2023-01-05T15:38:28.689Z,100908.16
2023-01-05T15:41:30.449Z,100906.28
2023-01-05T15:44:39.059Z,100924.09
2023-01-05T15:47:40.887Z,100923.78
2023-01-05T15:50:53.260Z,100906.59
2023-01-05T15:54:01.022Z,100913.00
2023-01-05T15:57:02.804Z,100917.78
2023-01-05T16:00:17.901Z,100922.19
2023-01-05T16:03:31.468Z,100914.97
2023-01-05T16:06:33.408Z,100919.38
2023-01-05T16:09:38.878Z,100931.22
2023-01-05T16:12:40.635Z,100909.41
2023-01-05T16:15:47.710Z,100929.06
2023-01-05T16:18:53.947Z,100915.69
2023-01-05T16:22:04.449Z,100919.78
2023-01-05T16:25:12.264Z,100934.25
2023-01-05T16:28:19.088Z,100936.69
2023-01-05T16:31:54.442Z,100939.13
2023-01-05T16:35:24.086Z,100944.50
2023-01-05T16:38:28.462Z,100941.22
2023-01-05T16:41:30.281Z,100947.59
2023-01-05T16:44:34.319Z,100952.72
2023-01-05T16:47:38.530Z,100954.38
2023-01-05T16:50:55.540Z,100950.38
2023-01-05T16:54:11.995Z,100939.91
2023-01-05T16:57:42.858Z,100936.84
2023-01-05T17:00:44.599Z,100927.59
2023-01-05T17:03:46.401Z,100939.91
2023-01-05T17:06:50.379Z,100936.06
2023-01-05T17:09:52.457Z,100945.00
2023-01-05T17:13:05.663Z,100954.53
2023-01-05T17:16:11.147Z,100960.00
2023-01-05T17:19:14.674Z,100963.00
2023-01-05T17:22:16.895Z,100973.22
2023-01-05T17:25:18.672Z,100977.47
2023-01-05T17:28:24.611Z,100979.19
2023-01-05T17:31:27.275Z,100982.81
2023-01-05T17:34:29.130Z,100983.09
2023-01-05T17:37:30.776Z,100981.09
2023-01-05T17:40:32.796Z,100979.22
2023-01-05T17:43:34.446Z,100984.56
2023-01-05T17:46:40.506Z,100990.25
2023-01-05T17:49:43.761Z,100990.78
2023-01-05T17:52:45.556Z,100994.81
2023-01-05T17:55:47.582Z,100992.44
2023-01-05T17:58:49.674Z,101009.84
2023-01-05T18:01:51.421Z,101007.09
2023-01-05T18:04:53.307Z,101012.13
2023-01-05T18:07:55.067Z,101014.25
2023-01-05T18:10:56.801Z,101010.41
2023-01-05T18:13:58.538Z,101011.22
2023-01-05T18:17:00.214Z,101011.50
2023-01-05T18:20:02.244Z,101013.78
2023-01-05T18:23:03.960Z,101004.34
2023-01-05T18:26:08.126Z,100994.88
2023-01-05T18:29:09.964Z,100994.63
2023-01-05T18:32:12.353Z,101015.19
2023-01-05T18:35:14.129Z,101014.69
2023-01-05T18:38:15.886Z,101017.81
2023-01-05T18:41:23.098Z,101024.16
2023-01-05T18:44:25.119Z,101026.00
2023-01-05T18:47:26.834Z,101025.22
2023-01-05T18:50:28.888Z,101028.91
2023-01-05T18:53:30.560Z,101028.91
2023-01-05T18:56:32.375Z,101036.53
2023-01-05T18:59:34.293Z,101039.75
2023-01-05T19:02:36.053Z,101050.03
2023-01-05T19:05:40.775Z,101046.09
2023-01-05T19:08:43.168Z,101053.19
2023-01-05T19:11:46.886Z,101040.88
2023-01-05T19:14:48.568Z,101040.53
2023-01-05T19:17:53.242Z,101051.91
2023-01-05T19:20:57.215Z,101059.22
2023-01-05T19:24:00.720Z,101055.78
2023-01-05T19:27:02.403Z,101057.88
2023-01-05T19:30:04.553Z,101064.94
2023-01-05T19:33:06.539Z,101061.72
2023-01-05T19:36:15.188Z,101065.81
2023-01-05T19:39:19.614Z,101064.91
2023-01-05T19:42:21.469Z,101080.94
2023-01-05T19:45:23.222Z,101071.72
2023-01-05T19:48:25.061Z,101069.16
2023-01-05T19:51:29.059Z,101071.97
2023-01-05T19:54:30.963Z,101071.88
2023-01-05T19:57:32.689Z,101070.38
2023-01-05T20:00:34.519Z,101070.91
2023-01-05T20:03:36.167Z,101065.75
2023-01-05T20:06:40.945Z,101071.75
2023-01-05T20:09:42.764Z,101076.75
2023-01-05T20:12:44.437Z,101085.00
2023-01-05T20:15:46.393Z,101094.63
2023-01-05T20:18:48.113Z,101101.09
2023-01-05T20:21:50.862Z,101105.75
2023-01-05T20:24:52.832Z,101100.78
2023-01-05T20:27:54.510Z,101099.59
2023-01-05T20:30:56.879Z,101109.44
2023-01-05T20:34:02.208Z,101119.00
2023-01-05T20:37:07.323Z,101115.66
2023-01-05T20:40:09.485Z,101121.03
2023-01-05T20:43:11.430Z,101128.44
2023-01-05T20:46:14.646Z,101132.13
2023-01-05T20:49:17.846Z,101137.88
2023-01-05T20:52:19.805Z,101132.38
2023-01-05T20:55:21.540Z,101130.56
2023-01-05T20:58:26.852Z,101130.59
2023-01-05T21:01:28.988Z,101129.81
2023-01-05T21:04:30.912Z,101118.81
2023-01-05T21:07:32.663Z,101142.72
2023-01-05T21:10:36.799Z,101150.88
2023-01-05T21:13:38.481Z,101152.97
2023-01-05T21:16:43.627Z,101154.28
2023-01-05T21:19:45.328Z,101160.59
2023-01-05T21:22:47.223Z,101162.72
2023-01-05T21:26:06.038Z,101143.75
2023-01-05T21:29:13.176Z,101145.78
2023-01-05T21:32:15.174Z,101140.19
2023-01-05T21:35:17.069Z,101156.19
2023-01-05T21:38:18.736Z,101161.41
2023-01-05T21:41:41.417Z,101153.75
2023-01-05T21:44:43.143Z,101161.28
2023-01-05T21:47:45.380Z,101159.19
2023-01-05T21:51:05.739Z,101154.44
2023-01-05T21:54:37.497Z,101139.16
2023-01-05T21:57:39.206Z,101159.03
2023-01-05T22:00:40.921Z,101158.47
2023-01-05T22:03:42.723Z,101166.84
2023-01-05T22:06:44.432Z,101163.63
2023-01-05T22:09:46.133Z,101179.41
2023-01-05T22:12:47.795Z,101172.84
2023-01-05T22:15:51.538Z,101179.66
2023-01-05T22:18:59.140Z,101184.13
2023-01-05T22:22:00.911Z,101182.75
2023-01-05T22:25:02.598Z,101190.66
2023-01-05T22:28:04.505Z,101179.31
2023-01-05T22:31:07.962Z,101185.97
2023-01-05T22:34:09.672Z,101198.03
2023-01-05T22:37:11.403Z,101180.72
2023-01-05T22:40:13.321Z,101189.16
2023-01-05T22:43:15.044Z,101194.44
2023-01-05T22:46:26.075Z,101196.56
2023-01-05T22:49:28.642Z,101179.47
2023-01-05T22:52:30.312Z,101187.41
2023-01-05T22:55:31.983Z,101180.31
2023-01-05T22:58:33.694Z,101190.28
2023-01-05T23:01:43.306Z,101184.06
2023-01-05T23:04:45.069Z,101195.13
2023-01-05T23:07:47.382Z,101198.56
2023-01-05T23:10:49.142Z,101198.56
2023-01-05T23:13:52.496Z,101208.28
2023-01-05T23:16:54.229Z,101210.66
2023-01-05T23:19:55.911Z,101207.56
2023-01-05T23:22:57.617Z,101199.69
2023-01-05T23:25:59.795Z,101193.13
2023-01-05T23:29:01.894Z,101195.19
2023-01-05T23:32:04.424Z,101188.63
2023-01-05T23:35:07.929Z,101196.81
2023-01-05T23:38:10.310Z,101197.59
2023-01-05T23:41:13.433Z,101208.38
2023-01-05T23:44:15.112Z,101202.84
2023-01-05T23:47:16.797Z,101201.53
2023-01-05T23:50:18.505Z,101207.06
2023-01-05T23:53:20.549Z,101208.66
2023-01-05T23:56:28.716Z,101210.00
2023-01-05T23:59:30.416Z,101222.88
